Temp: 13.9°C   Hum: 78%
  Wind: 2.9mph   Dir: WNW (283°)
  Rain: 0.0mm Rate: 0.0mm/hr
  Pressure: 1008.4mb

Historic data

Bath Spa Weather Station Historical Data
Daily Summary for October 7, 2021 Units:  Metric    English   Both
Daily Weekly Monthly Yearly Custom
  High: Low: Average:
Temperature: 19.9 °C 12.7 °C 15.9 °C
Dew Point: 16.5 °C 11.3 °C 14.4 °C
Humidity: 93% 78% 88%
Wind Speed: 11.3km/h 0km/h 2.6km/h
Wind Gust: 19.3km/h - -
Wind- - WSW
Pressure: 1028.3 hPa 1023.9 hPa -
Precipitation: 0 mm    
Historical Graphs
 
 
Tabular Data for October 7, 2021
Time Temperature Dew Point Pressure Wind Wind Speed Wind Gust Humidity Rainfall Rate (Hourly) solar
00:09 12.7 °C 11.3 °C 1024.3 hPa West 2.3 km/h 4.8 km/h 88% 0 mm 0 W/m2
00:14 12.8 °C 11.4 °C 1024.3 hPa West 1 km/h 3.2 km/h 88% 0 mm 0 W/m2
00:19 12.9 °C 11.6 °C 1024.3 hPa West 3.7 km/h 9.7 km/h 88.6% 0 mm 0 W/m2
00:24 13.1 °C 11.8 °C 1024.3 hPa Calm   3.2 km/h 89% 0 mm 0 W/m2
00:29 13.1 °C 11.8 °C 1024.3 hPa Calm   1.6 km/h 89% 0 mm 0 W/m2
00:34 13.1 °C 11.7 °C 1024.3 hPa West 0.6 km/h 3.2 km/h 88.4% 0 mm 0 W/m2
00:39 13.1 °C 11.8 °C 1024.3 hPa West 3.5 km/h 8 km/h 89% 0 mm 0 W/m2
00:44 13.1 °C 11.8 °C 1024.3 hPa West 2.1 km/h 8 km/h 89% 0 mm 0 W/m2
00:49 13 °C 11.7 °C 1024.3 hPa Calm   1.6 km/h 89% 0 mm 0 W/m2
00:54 13 °C 11.7 °C 1024.3 hPa Calm     89% 0 mm 0 W/m2
00:59 13.1 °C 11.8 °C 1024.3 hPa West 2.9 km/h 4.8 km/h 89% 0 mm 0 W/m2
01:04 13.1 °C 11.7 °C 1024.3 hPa West 0.6 km/h 4.8 km/h 89% 0 mm 0 W/m2
01:09 13.1 °C 11.8 °C 1024.3 hPa Calm     89% 0 mm 0 W/m2
01:14 13.1 °C 11.8 °C 1024.3 hPa West 3.9 km/h 4.8 km/h 89% 0 mm 0 W/m2
01:19 13 °C 11.7 °C 1024.3 hPa West 1.6 km/h 4.8 km/h 89% 0 mm 0 W/m2
01:24 13.1 °C 11.8 °C 1023.9 hPa West 0.6 km/h 3.2 km/h 89% 0 mm 0 W/m2
01:29 13 °C 11.7 °C 1023.9 hPa West 3.2 km/h 4.8 km/h 89% 0 mm 0 W/m2
01:34 12.9 °C 11.7 °C 1023.9 hPa West 1.3 km/h 4.8 km/h 89% 0 mm 0 W/m2
01:39 13 °C 11.8 °C 1023.9 hPa Calm   1.6 km/h 89.8% 0 mm 0 W/m2
01:44 13.1 °C 11.9 °C 1023.9 hPa West 2.6 km/h 6.4 km/h 90% 0 mm 0 W/m2
01:49 13.1 °C 12 °C 1023.9 hPa Calm   4.8 km/h 90% 0 mm 0 W/m2
01:54 13.1 °C 12 °C 1023.9 hPa Calm     90% 0 mm 0 W/m2
01:59 13.1 °C 12 °C 1023.9 hPa Calm   3.2 km/h 90% 0 mm 0 W/m2
02:04 13.1 °C 12 °C 1023.9 hPa Calm   1.6 km/h 90% 0 mm 0 W/m2
02:09 13.1 °C 12 °C 1023.9 hPa Calm   1.6 km/h 90% 0 mm 0 W/m2
02:14 13.2 °C 12.1 °C 1023.9 hPa West 0.6 km/h 6.4 km/h 90% 0 mm 0 W/m2
02:19 13.3 °C 12.2 °C 1023.9 hPa West 0.6 km/h 3.2 km/h 90% 0 mm 0 W/m2
02:24 13.3 °C 12.2 °C 1023.9 hPa West 1.9 km/h 6.4 km/h 90% 0 mm 0 W/m2
02:29 13.4 °C 12.3 °C 1023.9 hPa West 0.6 km/h 4.8 km/h 90% 0 mm 0 W/m2
02:34 13.6 °C 12.5 °C 1023.9 hPa West 2.1 km/h 4.8 km/h 90% 0 mm 0 W/m2
02:39 13.6 °C 12.5 °C 1023.9 hPa West 1.9 km/h 4.8 km/h 90% 0 mm 0 W/m2
02:44 13.7 °C 12.6 °C 1024.3 hPa West 0.8 km/h 3.2 km/h 90% 0 mm 0 W/m2
02:48 13.7 °C 12.6 °C 1024.3 hPa West 0.5 km/h 3.2 km/h 90% 0 mm 0 W/m2
02:54 13.6 °C 12.5 °C 1024.3 hPa West 1.3 km/h 3.2 km/h 90% 0 mm 0 W/m2
02:59 13.7 °C 12.7 °C 1024.3 hPa West 0.3 km/h 3.2 km/h 90.6% 0 mm 0 W/m2
03:04 13.7 °C 12.8 °C 1024.3 hPa West 1.3 km/h 4.8 km/h 91% 0 mm 0 W/m2
03:09 13.7 °C 12.8 °C 1024.3 hPa West 0.8 km/h 3.2 km/h 91% 0 mm 0 W/m2
03:14 13.7 °C 12.8 °C 1024.3 hPa West 2.3 km/h 4.8 km/h 91% 0 mm 0 W/m2
03:18 13.7 °C 12.8 °C 1024.3 hPa West 1 km/h 4.8 km/h 91% 0 mm 0 W/m2
03:24 13.7 °C 12.8 °C 1023.9 hPa West 2.1 km/h 4.8 km/h 91% 0 mm 0 W/m2
03:29 13.7 °C 12.8 °C 1024.3 hPa West 1.4 km/h 3.2 km/h 91% 0 mm 0 W/m2
03:34 13.7 °C 12.8 °C 1024.3 hPa West 1.8 km/h 4.8 km/h 91% 0 mm 0 W/m2
03:39 13.8 °C 12.9 °C 1024.3 hPa West 1.6 km/h 4.8 km/h 91% 0 mm 0 W/m2
03:44 13.8 °C 12.9 °C 1023.9 hPa West 1.1 km/h 3.2 km/h 91% 0 mm 0 W/m2
03:49 13.8 °C 12.9 °C 1023.9 hPa West 1.9 km/h 4.8 km/h 91% 0 mm 0 W/m2
03:54 13.8 °C 12.9 °C 1024.3 hPa West 1 km/h 3.2 km/h 91% 0 mm 0 W/m2
03:59 13.8 °C 12.9 °C 1024.3 hPa West 1.6 km/h 4.8 km/h 91% 0 mm 0 W/m2
04:04 13.9 °C 12.9 °C 1024.3 hPa West 0.3 km/h 3.2 km/h 91% 0 mm 0 W/m2
04:09 13.9 °C 12.9 °C 1024.3 hPa Calm   3.2 km/h 91% 0 mm 0 W/m2
04:14 13.8 °C 12.9 °C 1024.3 hPa Calm   3.2 km/h 91% 0 mm 0 W/m2
04:19 13.8 °C 12.9 °C 1024.3 hPa West 1.6 km/h 3.2 km/h 91% 0 mm 0 W/m2
04:24 13.8 °C 12.9 °C 1024.3 hPa West 1 km/h 3.2 km/h 91.4% 0 mm 0 W/m2
04:29 13.9 °C 13.1 °C 1024.3 hPa West 0.3 km/h 1.6 km/h 92% 0 mm 0 W/m2
04:34 13.9 °C 13.1 °C 1024.3 hPa West 0.6 km/h 3.2 km/h 92% 0 mm 0 W/m2
04:39 13.9 °C 13.1 °C 1024.3 hPa West 1 km/h 3.2 km/h 91.8% 0 mm 0 W/m2
04:44 13.9 °C 13.1 °C 1024.3 hPa West 0.6 km/h 3.2 km/h 92% 0 mm 0 W/m2
04:49 13.9 °C 13.1 °C 1024.3 hPa Calm   1.6 km/h 92% 0 mm 0 W/m2
04:53 14 °C 13.2 °C 1024.3 hPa Calm     92% 0 mm 0 W/m2
04:59 14 °C 13.2 °C 1024.3 hPa West 0.6 km/h 3.2 km/h 92% 0 mm 0 W/m2
05:04 14.2 °C 13.4 °C 1024.3 hPa West 1.3 km/h 4.8 km/h 92% 0 mm 0 W/m2
05:09 14.2 °C 13.4 °C 1024.3 hPa Calm   3.2 km/h 92% 0 mm 0 W/m2
05:14 14.2 °C 13.4 °C 1024.3 hPa West 1.9 km/h 3.2 km/h 92% 0 mm 0 W/m2
05:19 14.2 °C 13.4 °C 1024.3 hPa West 0.8 km/h 3.2 km/h 92% 0 mm 0 W/m2
05:24 14.2 °C 13.4 °C 1024.3 hPa West 1.3 km/h 3.2 km/h 92% 0 mm 0 W/m2
05:29 14.3 °C 13.5 °C 1024.3 hPa Calm   3.2 km/h 92% 0 mm 0 W/m2
05:34 14.3 °C 13.6 °C 1024.3 hPa West 0.6 km/h 4.8 km/h 92% 0 mm 0 W/m2
05:39 14.4 °C 13.6 °C 1024.3 hPa West 1 km/h 3.2 km/h 92% 0 mm 0 W/m2
05:44 14.5 °C 13.7 °C 1024.3 hPa West 0.3 km/h 3.2 km/h 92% 0 mm 0 W/m2
05:49 14.5 °C 13.7 °C 1024.3 hPa West 1.6 km/h 4.8 km/h 92% 0 mm 0 W/m2
05:54 14.5 °C 13.7 °C 1024.3 hPa West 1 km/h 3.2 km/h 92% 0 mm 0 W/m2
05:59 14.5 °C 13.7 °C 1024.6 hPa West 0.8 km/h 1.6 km/h 92% 0 mm 0 W/m2
06:04 14.4 °C 13.6 °C 1024.6 hPa West 0.3 km/h 3.2 km/h 92% 0 mm 0 W/m2
06:08 14.4 °C 13.6 °C 1024.6 hPa Calm     92% 0 mm 0 W/m2
06:14 14.4 °C 13.7 °C 1024.6 hPa West 0.3 km/h 1.6 km/h 92.2% 0 mm 0 W/m2
06:19 14.4 °C 13.8 °C 1024.6 hPa Calm   1.6 km/h 93% 0 mm 0 W/m2
06:24 14.5 °C 13.9 °C 1024.6 hPa Calm     93% 0 mm 0 W/m2
06:29 14.5 °C 13.9 °C 1024.6 hPa Calm     93% 0 mm 0 W/m2
06:34 14.5 °C 13.9 °C 1024.6 hPa West 1.3 km/h 3.2 km/h 93% 0 mm 0 W/m2
06:39 14.5 °C 13.9 °C 1024.6 hPa West 0.8 km/h 3.2 km/h 93% 0 mm 0 W/m2
06:44 14.6 °C 14 °C 1024.6 hPa West 0.6 km/h 3.2 km/h 93% 0 mm 0 W/m2
06:49 14.6 °C 14 °C 1024.6 hPa Calm   3.2 km/h 93% 0 mm 0 W/m2
06:54 14.6 °C 14 °C 1024.6 hPa Calm     93% 0 mm 0 W/m2
06:59 14.7 °C 14.1 °C 1024.6 hPa Calm     93% 0 mm 0 W/m2
07:04 14.6 °C 14 °C 1024.6 hPa Calm     93% 0 mm 0 W/m2
07:09 14.6 °C 14 °C 1024.6 hPa Calm     93% 0 mm 0 W/m2
07:14 14.6 °C 14 °C 1024.9 hPa Calm     93% 0 mm 0 W/m2
07:19 14.6 °C 14 °C 1024.9 hPa Calm     93% 0 mm 0 W/m2
07:24 14.6 °C 14 °C 1024.9 hPa West 0.3 km/h 3.2 km/h 93% 0 mm 0 W/m2
07:29 14.7 °C 14.1 °C 1024.6 hPa West 1 km/h 4.8 km/h 93% 0 mm 0 W/m2
07:34 14.7 °C 14.1 °C 1024.9 hPa West 0.3 km/h 4.8 km/h 93% 0 mm 5 W/m2
07:39 14.8 °C 14.2 °C 1024.9 hPa West 0.6 km/h 3.2 km/h 93% 0 mm 5 W/m2
07:44 14.8 °C 14.2 °C 1024.9 hPa Calm   3.2 km/h 93% 0 mm 7 W/m2
07:49 14.9 °C 14.3 °C 1024.9 hPa Calm   1.6 km/h 93% 0 mm 11 W/m2
07:54 15.1 °C 14.4 °C 1024.9 hPa West 1 km/h 3.2 km/h 93% 0 mm 12 W/m2
07:59 15 °C 14.4 °C 1024.9 hPa Calm   3.2 km/h 93% 0 mm 19 W/m2
08:04 14.9 °C 14.3 °C 1024.9 hPa Calm     93% 0 mm 21 W/m2
08:09 14.9 °C 14.3 °C 1024.9 hPa Calm     93% 0 mm 23 W/m2
08:14 14.9 °C 14.3 °C 1024.9 hPa Calm     93% 0 mm 25 W/m2
08:19 14.9 °C 14.3 °C 1024.9 hPa Calm     93% 0 mm 37 W/m2
08:24 14.9 °C 14.3 °C 1025.3 hPa Calm     93% 0 mm 37 W/m2
08:29 15 °C 14.4 °C 1025.3 hPa Calm     93% 0 mm 44 W/m2
08:34 15 °C 14.4 °C 1025.3 hPa Calm     93% 0 mm 90 W/m2
08:39 15.1 °C 14.5 °C 1025.3 hPa West 0.3 km/h 1.6 km/h 93% 0 mm 100 W/m2
08:44 15.2 °C 14.6 °C 1025.3 hPa Calm   4.8 km/h 93% 0 mm 76 W/m2
08:49 15.2 °C 14.6 °C 1025.3 hPa Calm   1.6 km/h 93% 0 mm 67 W/m2
08:54 15.2 °C 14.6 °C 1025.3 hPa West 0.6 km/h 1.6 km/h 93% 0 mm 97 W/m2
08:59 15.3 °C 14.7 °C 1025.3 hPa Calm     93% 0 mm 91 W/m2
09:04 15.4 °C 14.8 °C 1025.3 hPa Calm     93% 0 mm 60 W/m2
09:09 15.4 °C 14.8 °C 1025.3 hPa West 0.6 km/h 4.8 km/h 93% 0 mm 54 W/m2
09:14 15.4 °C 14.8 °C 1025.3 hPa West 0.6 km/h 4.8 km/h 93% 0 mm 65 W/m2
09:19 15.6 °C 14.9 °C 1025.3 hPa Calm     93% 0 mm 70 W/m2
09:24 15.6 °C 15 °C 1025.3 hPa Calm   3.2 km/h 93% 0 mm 76 W/m2
09:29 15.7 °C 15.1 °C 1025.3 hPa West 0.3 km/h 1.6 km/h 93% 0 mm 120 W/m2
09:34 15.8 °C 15.2 °C 1025.3 hPa West 4 km/h 9.7 km/h 93% 0 mm 118 W/m2
09:39 15.8 °C 15.2 °C 1025.3 hPa West 6 km/h 9.7 km/h 93% 0 mm 104 W/m2
09:44 15.9 °C 15.3 °C 1025.6 hPa West 7.7 km/h 14.5 km/h 93% 0 mm 128 W/m2
09:49 15.9 °C 15.3 °C 1025.6 hPa West 5.3 km/h 12.9 km/h 93% 0 mm 130 W/m2
09:54 15.9 °C 15.3 °C 1025.6 hPa West 6 km/h 9.7 km/h 93% 0 mm 141 W/m2
09:59 16.1 °C 15.4 °C 1025.6 hPa West 4.5 km/h 11.3 km/h 93% 0 mm 116 W/m2
10:04 16.1 °C 15.5 °C 1025.6 hPa West 1.4 km/h 6.4 km/h 93% 0 mm 156 W/m2
10:08 16.2 °C 15.7 °C 1025.6 hPa West 0.8 km/h 4.8 km/h 93% 0 mm 188 W/m2
10:14 16.3 °C 15.7 °C 1025.6 hPa West 1 km/h 4.8 km/h 92.8% 0 mm 243 W/m2
10:19 16.7 °C 15.8 °C 1025.3 hPa West 2.7 km/h 6.4 km/h 92% 0 mm 380 W/m2
10:24 16.7 °C 15.9 °C 1025.3 hPa West 3.2 km/h 8 km/h 91.8% 0 mm 295 W/m2
10:29 17.1 °C 16.1 °C 1025.6 hPa West 3.4 km/h 9.7 km/h 90.8% 0 mm 439 W/m2
10:34 17.3 °C 16.1 °C 1025.6 hPa West 4.8 km/h 9.7 km/h 89.8% 0 mm 357 W/m2
10:39 17.4 °C 15.9 °C 1025.6 hPa SSW 9.3 km/h 16.1 km/h 88.4% 0 mm 413 W/m2
10:44 17.4 °C 15.9 °C 1025.6 hPa SSW 5 km/h 11.3 km/h 88% 0 mm 413 W/m2
10:49 17.6 °C 15.9 °C 1025.6 hPa SSW 6.3 km/h 11.3 km/h 87.3% 0 mm 506 W/m2
10:54 17.8 °C 16.1 °C 1025.6 hPa South 5 km/h 11.3 km/h 87% 0 mm 522 W/m2
10:59 17.7 °C 15.7 °C 1025.6 hPa South 8.7 km/h 11.3 km/h 86% 0 mm 566 W/m2
11:04 17.6 °C 15.7 °C 1025.6 hPa South 6.3 km/h 14.5 km/h 86% 0 mm 566 W/m2
11:09 17.7 °C 15.8 °C 1025.6 hPa South 4.7 km/h 11.3 km/h 86% 0 mm 313 W/m2
11:14 17.8 °C 15.7 °C 1025.6 hPa South 3.4 km/h 11.3 km/h 85% 0 mm 227 W/m2
11:19 17.8 °C 15.8 °C 1025.6 hPa South 3.9 km/h 11.3 km/h 85% 0 mm 352 W/m2
11:24 17.7 °C 15.7 °C 1025.6 hPa South 5 km/h 11.3 km/h 85.6% 0 mm 230 W/m2
11:29 17.7 °C 15.8 °C 1025.6 hPa South 3.4 km/h 8 km/h 86% 0 mm 223 W/m2
11:34 17.7 °C 15.8 °C 1025.6 hPa South 4 km/h 6.4 km/h 86% 0 mm 162 W/m2
11:39 17.7 °C 15.8 °C 1025.6 hPa South 3.9 km/h 8 km/h 86% 0 mm 169 W/m2
11:44 17.6 °C 15.7 °C 1025.6 hPa South 7.9 km/h 12.9 km/h 86% 0 mm 179 W/m2
11:49 17.5 °C 15.6 °C 1025.6 hPa South 4.7 km/h 11.3 km/h 86% 0 mm 163 W/m2
11:54 17.6 °C 15.8 °C 1025.6 hPa South 1.9 km/h 11.3 km/h 86.8% 0 mm 162 W/m2
11:59 17.6 °C 15.9 °C 1025.6 hPa South 5.5 km/h 9.7 km/h 87% 0 mm 174 W/m2
12:04 17.4 °C 15.6 °C 1025.6 hPa South 6.8 km/h 12.9 km/h 86.2% 0 mm 181 W/m2
12:09 17.4 °C 15.5 °C 1026 hPa SSW 5.8 km/h 11.3 km/h 86% 0 mm 181 W/m2
12:14 17.4 °C 15.5 °C 1026 hPa SSW 5.5 km/h 12.9 km/h 86% 0 mm 186 W/m2
12:19 17.5 °C 15.6 °C 1026 hPa SSW 8.5 km/h 12.9 km/h 86% 0 mm 204 W/m2
12:24 17.6 °C 15.7 °C 1026 hPa SW 3.9 km/h 9.7 km/h 86% 0 mm 204 W/m2
12:29 17.7 °C 15.8 °C 1026 hPa SW 5.1 km/h 11.3 km/h 86% 0 mm 163 W/m2
12:34 17.8 °C 15.9 °C 1026 hPa SW 5.3 km/h 11.3 km/h 86% 0 mm 195 W/m2
12:39 17.7 °C 15.8 °C 1026 hPa SW 3.4 km/h 8 km/h 86% 0 mm 207 W/m2
12:44 17.8 °C 15.9 °C 1026 hPa SW 4.5 km/h 9.7 km/h 86% 0 mm 186 W/m2
12:49 17.8 °C 15.8 °C 1026 hPa SW 6.8 km/h 12.9 km/h 85.4% 0 mm 179 W/m2
12:54 17.7 °C 15.7 °C 1026 hPa SW 6.9 km/h 12.9 km/h 85.4% 0 mm 139 W/m2
12:59 17.7 °C 15.8 °C 1026 hPa SW 7.6 km/h 12.9 km/h 86% 0 mm 128 W/m2
13:04 17.7 °C 15.8 °C 1026 hPa SW 6.4 km/h 14.5 km/h 86% 0 mm 172 W/m2
13:09 17.6 °C 15.7 °C 1026 hPa SW 7.7 km/h 14.5 km/h 86% 0 mm 185 W/m2
13:14 17.6 °C 15.7 °C 1026 hPa SW 4.3 km/h 9.7 km/h 86% 0 mm 153 W/m2
13:19 17.7 °C 15.8 °C 1026 hPa SW 6.3 km/h 9.7 km/h 86% 0 mm 148 W/m2
13:24 17.7 °C 15.8 °C 1026 hPa SW 4.5 km/h 9.7 km/h 86% 0 mm 195 W/m2
13:28 17.8 °C 15.9 °C 1026 hPa SW 5.1 km/h 12.9 km/h 86% 0 mm 257 W/m2
13:34 17.7 °C 15.7 °C 1026 hPa SW 9 km/h 16.1 km/h 85.2% 0 mm 381 W/m2
13:39 17.9 °C 15.9 °C 1026 hPa SW 4.7 km/h 11.3 km/h 85.4% 0 mm 306 W/m2
13:44 18.1 °C 15.9 °C 1026 hPa SW 5.8 km/h 11.3 km/h 84.6% 0 mm 236 W/m2
13:49 18.1 °C 15.7 °C 1026 hPa SW 7.7 km/h 12.9 km/h 84% 0 mm 283 W/m2
13:54 18.1 °C 15.8 °C 1026 hPa SW 7.7 km/h 12.9 km/h 84% 0 mm 373 W/m2
13:59 18.3 °C 15.9 °C 1026 hPa SW 6.6 km/h 11.3 km/h 83.8% 0 mm 385 W/m2
14:04 18.6 °C 16.1 °C 1025.6 hPa SW 6.6 km/h 11.3 km/h 83% 0 mm 563 W/m2
14:09 18.8 °C 16.1 °C 1025.6 hPa SW 7.9 km/h 17.7 km/h 81.8% 0 mm 563 W/m2
14:14 18.9 °C 16.1 °C 1025.6 hPa WSW 7.2 km/h 14.5 km/h 81% 0 mm 478 W/m2
14:19 19 °C 16.2 °C 1025.6 hPa WSW 6.6 km/h 11.3 km/h 81.4% 0 mm 396 W/m2
14:24 19.3 °C 16.4 °C 1025.6 hPa WSW 6.4 km/h 11.3 km/h 81.2% 0 mm 396 W/m2
14:29 19.3 °C 16.4 °C 1025.6 hPa WSW 8.7 km/h 12.9 km/h 80.6% 0 mm 371 W/m2
14:34 19.3 °C 16.3 °C 1025.6 hPa WSW 8.9 km/h 19.3 km/h 80.2% 0 mm 399 W/m2
14:39 19.3 °C 16.2 °C 1025.6 hPa WSW 11.3 km/h 17.7 km/h 79.8% 0 mm 636 W/m2
14:44 19.6 °C 16.3 °C 1025.6 hPa WSW 6.6 km/h 14.5 km/h 79% 0 mm 457 W/m2
14:49 19.9 °C 16.5 °C 1025.6 hPa WSW 10 km/h 16.1 km/h 78.4% 0 mm 566 W/m2
14:53 19.7 °C 16.2 °C 1025.6 hPa West 7.2 km/h 14.5 km/h 78% 0 mm 313 W/m2
14:59 19.4 °C 15.9 °C 1025.6 hPa West 6.9 km/h 12.9 km/h 78% 0 mm 241 W/m2
15:04 19.3 °C 16.1 °C 1025.6 hPa West 9 km/h 12.9 km/h 79% 0 mm 271 W/m2
15:09 19.3 °C 16.1 °C 1025.6 hPa West 7.7 km/h 17.7 km/h 79% 0 mm 429 W/m2
15:14 19.3 °C 16.1 °C 1025.6 hPa WSW 8 km/h 14.5 km/h 79% 0 mm 269 W/m2
15:19 19.2 °C 16 °C 1025.6 hPa WSW 8.4 km/h 14.5 km/h 79% 0 mm 253 W/m2
15:24 19.3 °C 16.2 °C 1026 hPa WSW 4.5 km/h 11.3 km/h 79.8% 0 mm 302 W/m2
15:29 19.3 °C 16.1 °C 1026 hPa WSW 8 km/h 12.9 km/h 79% 0 mm 274 W/m2
15:34 19.4 °C 16.1 °C 1026 hPa WSW 8.4 km/h 12.9 km/h 79% 0 mm 295 W/m2
15:39 19.3 °C 16.1 °C 1026 hPa WSW 5.8 km/h 11.3 km/h 79.2% 0 mm 246 W/m2
15:44 19.3 °C 16.1 °C 1026 hPa WSW 4.7 km/h 9.7 km/h 79.2% 0 mm 162 W/m2
15:49 19.2 °C 16.1 °C 1026 hPa WSW 7.4 km/h 14.5 km/h 79% 0 mm 139 W/m2
15:54 19.1 °C 16.1 °C 1026 hPa WSW 5.1 km/h 14.5 km/h 80% 0 mm 111 W/m2
15:59 19 °C 16 °C 1026 hPa WSW 7.9 km/h 12.9 km/h 80% 0 mm 142 W/m2
16:04 18.9 °C 15.9 °C 1026 hPa WSW 5.1 km/h 11.3 km/h 80.2% 0 mm 163 W/m2
16:09 19 °C 16.2 °C 1026 hPa WSW 3.5 km/h 8 km/h 81% 0 mm 165 W/m2
16:14 19.1 °C 16.2 °C 1026 hPa WSW 4.5 km/h 8 km/h 81% 0 mm 167 W/m2
16:19 19.1 °C 16.2 °C 1025.6 hPa WSW 4.3 km/h 8 km/h 81% 0 mm 165 W/m2
16:24 19.1 °C 16.2 °C 1025.6 hPa WSW 4.7 km/h 9.7 km/h 81% 0 mm 142 W/m2
16:29 19 °C 16.2 °C 1025.6 hPa WSW 6.4 km/h 11.3 km/h 81% 0 mm 278 W/m2
16:34 19.1 °C 16.2 °C 1025.6 hPa WSW 3.2 km/h 8 km/h 81% 0 mm 262 W/m2
16:39 19.1 °C 16.2 °C 1025.6 hPa WSW 5.6 km/h 11.3 km/h 81% 0 mm 158 W/m2
16:44 18.9 °C 16.1 °C 1025.6 hPa WSW 6.4 km/h 11.3 km/h 81% 0 mm 137 W/m2
16:49 18.8 °C 16 °C 1025.6 hPa WSW 4.3 km/h 12.9 km/h 81% 0 mm 120 W/m2
16:54 18.8 °C 16.1 °C 1025.6 hPa WSW 5 km/h 9.7 km/h 81.8% 0 mm 113 W/m2
16:59 18.7 °C 16.1 °C 1025.6 hPa WSW 5.3 km/h 11.3 km/h 82% 0 mm 109 W/m2
17:04 18.6 °C 16 °C 1025.6 hPa WSW 5.1 km/h 8 km/h 82% 0 mm 93 W/m2
17:09 18.6 °C 16 °C 1025.6 hPa WSW 4.7 km/h 11.3 km/h 82% 0 mm 84 W/m2
17:14 18.5 °C 15.9 °C 1026 hPa WSW 4.5 km/h 9.7 km/h 82% 0 mm 72 W/m2
17:19 18.4 °C 15.8 °C 1026 hPa WSW 4.2 km/h 9.7 km/h 82.2% 0 mm 47 W/m2
17:24 18.3 °C 15.9 °C 1026 hPa WSW 4.5 km/h 11.3 km/h 83% 0 mm 35 W/m2
17:29 18.3 °C 15.9 °C 1026 hPa WSW 3.9 km/h 9.7 km/h 83% 0 mm 25 W/m2
17:34 18.2 °C 15.8 °C 1026 hPa WSW 4.7 km/h 11.3 km/h 83% 0 mm 14 W/m2
17:39 18.2 °C 15.8 °C 1026 hPa WSW 5 km/h 9.7 km/h 83% 0 mm 9 W/m2
17:44 18.1 °C 15.8 °C 1026 hPa WSW 3.9 km/h 9.7 km/h 84% 0 mm 9 W/m2
17:49 18.1 °C 15.8 °C 1026 hPa WSW 4.3 km/h 8 km/h 84% 0 mm 11 W/m2
17:54 18 °C 15.7 °C 1026 hPa WSW 4.8 km/h 9.7 km/h 84% 0 mm 11 W/m2
17:59 17.9 °C 15.6 °C 1026 hPa WSW 3.9 km/h 8 km/h 84% 0 mm 11 W/m2
18:04 17.8 °C 15.6 °C 1026 hPa WSW 2.1 km/h 6.4 km/h 84.6% 0 mm 11 W/m2
18:09 17.8 °C 15.7 °C 1026.3 hPa WSW 2.1 km/h 6.4 km/h 85% 0 mm 11 W/m2
18:14 17.8 °C 15.7 °C 1026.3 hPa WSW 4 km/h 9.7 km/h 85% 0 mm 11 W/m2
18:19 17.7 °C 15.6 °C 1026.3 hPa WSW 1.9 km/h 6.4 km/h 85% 0 mm 11 W/m2
18:24 17.7 °C 15.6 °C 1026.3 hPa WSW 1.3 km/h 6.4 km/h 85% 0 mm 7 W/m2
18:29 17.7 °C 15.6 °C 1026.3 hPa WSW 2.7 km/h 8 km/h 85% 0 mm 5 W/m2
18:34 17.6 °C 15.7 °C 1026.3 hPa WSW 1.3 km/h 8 km/h 85.8% 0 mm 0 W/m2
18:39 17.5 °C 15.6 °C 1026.6 hPa WSW 0.6 km/h 4.8 km/h 86% 0 mm 0 W/m2
18:44 17.4 °C 15.5 °C 1026.6 hPa WSW 2.6 km/h 8 km/h 86% 0 mm 0 W/m2
18:49 17.3 °C 15.4 °C 1026.6 hPa WSW 3.4 km/h 8 km/h 86% 0 mm 0 W/m2
18:54 17.2 °C 15.3 °C 1026.6 hPa WSW 5.5 km/h 8 km/h 86.2% 0 mm 0 W/m2
18:59 17.2 °C 15.3 °C 1026.6 hPa WSW 3.4 km/h 6.4 km/h 86.4% 0 mm 0 W/m2
19:04 17.1 °C 15.4 °C 1026.6 hPa WSW 2.9 km/h 6.4 km/h 87% 0 mm 0 W/m2
19:08 17.1 °C 15.3 °C 1026.6 hPa WSW 3.2 km/h 8 km/h 87% 0 mm 0 W/m2
19:14 16.9 °C 15.2 °C 1026.6 hPa WSW 2.6 km/h 6.4 km/h 87% 0 mm 0 W/m2
19:19 16.9 °C 15.2 °C 1027 hPa WSW 1.3 km/h 6.4 km/h 87% 0 mm 0 W/m2
19:24 16.8 °C 15.1 °C 1027 hPa WSW 1.3 km/h 4.8 km/h 87% 0 mm 0 W/m2
19:29 16.7 °C 15.1 °C 1027 hPa WSW 1.3 km/h 8 km/h 87% 0 mm 0 W/m2
19:34 16.7 °C 15 °C 1027 hPa Calm   4.8 km/h 87% 0 mm 0 W/m2
19:39 16.7 °C 15 °C 1027 hPa Calm   3.2 km/h 87.2% 0 mm 0 W/m2
19:44 16.6 °C 15.1 °C 1027 hPa WSW 1 km/h 3.2 km/h 88% 0 mm 0 W/m2
19:49 16.5 °C 15 °C 1027 hPa WSW 1.9 km/h 6.4 km/h 88% 0 mm 0 W/m2
19:54 16.4 °C 14.9 °C 1027 hPa WSW 0.6 km/h 4.8 km/h 88% 0 mm 0 W/m2
19:59 16.3 °C 14.8 °C 1027.3 hPa WSW 0.6 km/h 4.8 km/h 88% 0 mm 0 W/m2
20:04 16.3 °C 14.8 °C 1027.3 hPa WSW 1.9 km/h 4.8 km/h 88% 0 mm 0 W/m2
20:09 16.2 °C 14.7 °C 1027.3 hPa Calm   3.2 km/h 88% 0 mm 0 W/m2
20:14 16.1 °C 14.6 °C 1027.3 hPa Calm   1.6 km/h 88% 0 mm 0 W/m2
20:19 16.1 °C 14.7 °C 1027.3 hPa WSW 0.3 km/h 3.2 km/h 88.4% 0 mm 0 W/m2
20:24 16 °C 14.6 °C 1027.3 hPa WSW 1 km/h 3.2 km/h 88.4% 0 mm 0 W/m2
20:29 15.9 °C 14.6 °C 1027.3 hPa WSW 0.6 km/h 3.2 km/h 88.8% 0 mm 0 W/m2
20:34 15.9 °C 14.6 °C 1027.3 hPa WSW 0.8 km/h 4.8 km/h 89% 0 mm 0 W/m2
20:39 15.8 °C 14.5 °C 1027.3 hPa Calm   3.2 km/h 89% 0 mm 0 W/m2
20:44 15.8 °C 14.5 °C 1027.3 hPa WSW 2.9 km/h 4.8 km/h 89% 0 mm 0 W/m2
20:49 15.8 °C 14.4 °C 1027.3 hPa WSW 2.3 km/h 4.8 km/h 89% 0 mm 0 W/m2
20:54 15.7 °C 14.4 °C 1027.3 hPa WSW 2.3 km/h 4.8 km/h 89% 0 mm 0 W/m2
20:59 15.6 °C 14.3 °C 1027.3 hPa WSW 1.3 km/h 4.8 km/h 89% 0 mm 0 W/m2
21:04 15.6 °C 14.3 °C 1027.3 hPa WSW 0.3 km/h 3.2 km/h 89% 0 mm 0 W/m2
21:09 15.6 °C 14.3 °C 1027.3 hPa WSW 1 km/h 3.2 km/h 89% 0 mm 0 W/m2
21:14 15.4 °C 14.2 °C 1027.3 hPa WSW 0.3 km/h 1.6 km/h 89% 0 mm 0 W/m2
21:19 15.4 °C 14.2 °C 1027.3 hPa Calm   3.2 km/h 89.6% 0 mm 0 W/m2
21:24 15.3 °C 14.2 °C 1027.3 hPa Calm   1.6 km/h 90% 0 mm 0 W/m2
21:29 15.3 °C 14.2 °C 1027.3 hPa Calm   1.6 km/h 89.8% 0 mm 0 W/m2
21:34 15.2 °C 14.2 °C 1027.3 hPa WSW 0.3 km/h 1.6 km/h 90% 0 mm 0 W/m2
21:39 15.2 °C 14.1 °C 1027.3 hPa WSW 0.6 km/h 3.2 km/h 90% 0 mm 0 W/m2
21:44 15.2 °C 14.1 °C 1027.7 hPa WSW 0.8 km/h 3.2 km/h 90% 0 mm 0 W/m2
21:49 15.1 °C 14 °C 1027.7 hPa WSW 0.6 km/h 3.2 km/h 90% 0 mm 0 W/m2
21:54 14.9 °C 13.8 °C 1027.7 hPa WSW 2.1 km/h 4.8 km/h 90% 0 mm 0 W/m2
21:59 14.8 °C 13.8 °C 1027.7 hPa WSW 1 km/h 3.2 km/h 90% 0 mm 0 W/m2
22:04 14.8 °C 13.7 °C 1027.7 hPa WSW 0.6 km/h 3.2 km/h 90% 0 mm 0 W/m2
22:09 14.8 °C 13.7 °C 1027.7 hPa WSW 0.3 km/h 3.2 km/h 90% 0 mm 0 W/m2
22:14 14.8 °C 13.7 °C 1027.7 hPa WSW 0.3 km/h 1.6 km/h 90% 0 mm 0 W/m2
22:19 14.7 °C 13.7 °C 1027.7 hPa Calm   1.6 km/h 90.8% 0 mm 0 W/m2
22:24 14.7 °C 13.7 °C 1027.7 hPa WSW 0.3 km/h 3.2 km/h 91% 0 mm 0 W/m2
22:29 14.6 °C 13.6 °C 1027.7 hPa WSW 1.3 km/h 4.8 km/h 91% 0 mm 0 W/m2
22:34 14.6 °C 13.6 °C 1027.7 hPa WSW 1.6 km/h 3.2 km/h 91% 0 mm 0 W/m2
22:39 14.4 °C 13.4 °C 1027.7 hPa WSW 1.4 km/h 3.2 km/h 91% 0 mm 0 W/m2
22:44 14.3 °C 13.3 °C 1028 hPa WSW 1 km/h 3.2 km/h 91% 0 mm 0 W/m2
22:49 14.3 °C 13.3 °C 1028 hPa WSW 0.8 km/h 3.2 km/h 91% 0 mm 0 W/m2
22:54 14.2 °C 13.2 °C 1028 hPa Calm   1.6 km/h 91% 0 mm 0 W/m2
22:59 14.2 °C 13.2 °C 1028 hPa Calm     91% 0 mm 0 W/m2
23:04 14.1 °C 13.1 °C 1028 hPa Calm     91% 0 mm 0 W/m2
23:09 13.9 °C 12.9 °C 1028 hPa WSW 1 km/h 3.2 km/h 91% 0 mm 0 W/m2
23:14 13.9 °C 12.9 °C 1028 hPa WSW 0.3 km/h 3.2 km/h 91% 0 mm 0 W/m2
23:19 13.9 °C 12.9 °C 1028 hPa Calm   1.6 km/h 91% 0 mm 0 W/m2
23:24 13.9 °C 13.1 °C 1028 hPa WSW 0.3 km/h 3.2 km/h 92% 0 mm 0 W/m2
23:29 13.9 °C 13.1 °C 1028 hPa WSW 0.6 km/h 3.2 km/h 91.8% 0 mm 0 W/m2
23:34 13.8 °C 13 °C 1028.3 hPa WSW 2.3 km/h 3.2 km/h 91.8% 0 mm 0 W/m2
23:39 13.8 °C 13 °C 1028.3 hPa WSW 1.4 km/h 3.2 km/h 92% 0 mm 0 W/m2
23:44 13.7 °C 12.9 °C 1028.3 hPa WSW 0.3 km/h 3.2 km/h 92% 0 mm 0 W/m2
23:49 13.6 °C 12.8 °C 1028.3 hPa Calm   1.6 km/h 92% 0 mm 0 W/m2
23:54 13.6 °C 12.8 °C 1028.3 hPa Calm     92% 0 mm 0 W/m2
23:59 13.5 °C 12.7 °C 1028.3 hPa Calm     92% 0 mm 0 W/m2
Bath Spa Weather
Compliments of Weather Underground - 2 mb